Time;durP1;ratioP1;P1;durP2;ratioP2;P2;SDS_P1;SDS_P2;PMS_P1;PMS_P2;Temp;Humidity;BMP_temperature;BMP_pressure;BME280_temperature;BME280_humidity;BME280_pressure;Samples;Min_cycle;Max_cycle;Signal;HPM_P1;HPM_P2
2021/08/22 00:00:07;;;;;;;3.70;2.05;;;22.20;62.80;;;;;;5052603;28;20021;-61
2021/08/22 00:02:32;;;;;;;4.45;1.80;;;22.10;62.80;;;;;;5052565;28;20465;-61
2021/08/22 00:04:58;;;;;;;4.93;2.00;;;22.10;62.80;;;;;;5052488;28;20052;-61
2021/08/22 00:07:24;;;;;;;2.88;1.70;;;22.10;62.80;;;;;;5052738;28;20017;-61
2021/08/22 00:09:50;;;;;;;4.20;2.10;;;22.10;62.80;;;;;;5052793;28;20368;-61
2021/08/22 00:12:15;;;;;;;4.20;2.00;;;22.10;62.80;;;;;;5052461;28;20035;-62
2021/08/22 00:14:41;;;;;;;6.00;2.40;;;22.10;62.80;;;;;;5051123;28;20029;-61
2021/08/22 00:17:06;;;;;;;3.28;1.70;;;22.10;62.90;;;;;;5051197;28;20025;-61
2021/08/22 00:19:32;;;;;;;3.75;2.00;;;22.10;62.80;;;;;;5052415;28;20094;-61
2021/08/22 00:21:57;;;;;;;3.05;1.60;;;22.10;62.90;;;;;;5051187;28;20021;-61
2021/08/22 00:24:23;;;;;;;3.85;1.95;;;22.10;62.90;;;;;;5052427;28;20052;-61
2021/08/22 00:26:48;;;;;;;2.85;1.83;;;22.10;63.00;;;;;;5052316;28;20021;-61
2021/08/22 00:29:14;;;;;;;3.47;1.73;;;22.10;62.90;;;;;;5052311;28;20060;-61
2021/08/22 00:31:40;;;;;;;3.30;1.60;;;22.00;62.90;;;;;;5052374;28;20032;-61
2021/08/22 00:34:05;;;;;;;4.95;1.80;;;22.00;63.00;;;;;;5052299;28;20473;-61
2021/08/22 00:36:30;;;;;;;4.03;2.00;;;22.00;63.00;;;;;;5052076;28;20099;-61
2021/08/22 00:38:56;;;;;;;5.22;2.33;;;22.00;63.00;;;;;;5052229;28;20492;-61
2021/08/22 00:41:21;;;;;;;3.92;1.95;;;22.00;63.00;;;;;;5052182;28;20095;-61
2021/08/22 00:43:47;;;;;;;3.65;1.95;;;22.00;63.00;;;;;;5052228;28;20090;-61
2021/08/22 00:46:13;;;;;;;4.20;2.10;;;22.00;63.10;;;;;;5052218;28;20025;-61
2021/08/22 00:48:42;;;;;;;4.47;2.30;;;22.00;63.10;;;;;;5054674;28;20046;-61
2021/08/22 00:51:08;;;;;;;4.78;2.05;;;22.00;63.10;;;;;;5055742;28;20473;-61
2021/08/22 00:53:33;;;;;;;3.28;1.70;;;22.00;63.20;;;;;;5055782;28;20119;-62
2021/08/22 00:56:03;;;;;;;3.72;1.92;;;22.00;63.20;;;;;;5055557;28;20055;-61
2021/08/22 00:58:30;;;;;;;4.75;2.05;;;22.00;63.20;;;;;;5055635;28;20484;-62
2021/08/22 01:00:56;;;;;;;3.75;1.95;;;22.00;63.20;;;;;;5055503;28;20481;-61
2021/08/22 01:03:34;;;;;;;3.63;1.77;;;22.00;63.20;;;;;;5055459;28;20064;-61
2021/08/22 01:06:03;;;;;;;6.30;2.33;;;22.00;63.30;;;;;;5055497;28;20388;-62
2021/08/22 01:08:34;;;;;;;3.70;1.90;;;22.00;63.30;;;;;;5055515;28;20017;-61
2021/08/22 01:11:10;;;;;;;4.35;2.10;;;22.00;63.30;;;;;;5055682;28;20028;-61
2021/08/22 01:13:40;;;;;;;6.70;2.92;;;22.00;63.40;;;;;;5055408;28;20492;-63
2021/08/22 01:16:08;;;;;;;3.28;1.80;;;22.00;63.40;;;;;;5055270;28;20036;-61
2021/08/22 01:18:36;;;;;;;3.28;1.60;;;22.00;63.30;;;;;;5055156;28;20036;-61
2021/08/22 01:21:08;;;;;;;5.63;2.00;;;22.00;63.40;;;;;;5055212;28;20083;-62
2021/08/22 01:23:56;;;;;;;3.75;1.95;;;22.00;63.40;;;;;;5055219;28;20021;-61
2021/08/22 01:26:26;;;;;;;5.15;2.05;;;22.00;63.50;;;;;;5055174;28;20029;-61
2021/08/22 01:28:52;;;;;;;3.75;1.80;;;22.00;63.50;;;;;;5055326;28;20108;-61
2021/08/22 01:31:22;;;;;;;4.00;2.00;;;22.00;63.50;;;;;;5055083;28;20439;-61
2021/08/22 01:33:48;;;;;;;3.60;2.10;;;22.00;63.60;;;;;;5054993;28;20045;-61
2021/08/22 01:36:14;;;;;;;3.70;1.83;;;21.90;63.60;;;;;;5053413;28;20049;-61
2021/08/22 01:38:41;;;;;;;4.03;2.13;;;21.90;63.70;;;;;;5054824;28;20021;-61
2021/08/22 01:41:08;;;;;;;4.60;2.00;;;21.90;63.70;;;;;;5054850;28;20412;-61
2021/08/22 01:43:36;;;;;;;3.78;2.10;;;21.90;63.70;;;;;;5053476;28;20488;-60
2021/08/22 01:46:02;;;;;;;4.32;2.05;;;21.90;63.70;;;;;;5053423;28;20524;-61
2021/08/22 01:48:28;;;;;;;3.67;2.10;;;21.90;63.80;;;;;;5054725;28;20028;-61
2021/08/22 01:50:58;;;;;;;5.38;2.38;;;21.90;63.80;;;;;;5054604;28;20032;-61
2021/08/22 01:53:25;;;;;;;3.33;1.75;;;21.80;63.90;;;;;;5054612;28;20021;-61
2021/08/22 01:55:53;;;;;;;3.58;1.95;;;21.90;63.90;;;;;;5054413;28;20037;-61
2021/08/22 01:58:20;;;;;;;4.55;1.95;;;21.90;63.90;;;;;;5054408;28;20032;-61
2021/08/22 02:00:46;;;;;;;3.75;1.75;;;21.80;64.00;;;;;;5054416;28;20028;-61
2021/08/22 02:03:34;;;;;;;3.85;2.08;;;21.80;64.00;;;;;;5054399;28;20021;-61
2021/08/22 02:06:06;;;;;;;5.47;2.00;;;21.80;63.90;;;;;;5054268;28;20032;-61
2021/08/22 02:08:33;;;;;;;5.40;1.90;;;21.80;64.00;;;;;;5054551;28;20476;-61
2021/08/22 02:11:14;;;;;;;4.95;2.00;;;21.80;64.00;;;;;;5054252;28;20434;-61
2021/08/22 02:13:41;;;;;;;3.20;1.70;;;21.80;64.00;;;;;;5054255;28;20382;-61
2021/08/22 02:16:11;;;;;;;3.30;1.90;;;21.80;64.00;;;;;;5054026;28;20041;-61
2021/08/22 02:18:38;;;;;;;3.25;1.80;;;21.80;64.00;;;;;;5053106;28;20107;-61
2021/08/22 02:21:05;;;;;;;4.07;2.00;;;21.80;64.00;;;;;;5054076;28;20025;-61
2021/08/22 02:23:30;;;;;;;3.88;1.90;;;21.80;64.00;;;;;;5054035;28;20472;-61
2021/08/22 02:25:56;;;;;;;4.38;2.10;;;21.80;64.10;;;;;;5053991;28;20056;-61
2021/08/22 02:28:22;;;;;;;3.28;1.80;;;21.70;64.00;;;;;;5053914;28;20029;-61
2021/08/22 02:30:50;;;;;;;3.75;2.10;;;21.70;64.10;;;;;;5053797;28;20033;-61
2021/08/22 02:33:16;;;;;;;3.72;1.92;;;21.80;64.10;;;;;;5053845;28;20025;-61
2021/08/22 02:35:41;;;;;;;3.88;1.90;;;21.70;64.10;;;;;;5053508;28;20049;-61
2021/08/22 02:38:07;;;;;;;4.38;2.03;;;21.70;64.10;;;;;;5053987;28;20053;-61
2021/08/22 02:40:32;;;;;;;4.80;1.85;;;21.70;64.10;;;;;;5053638;28;20060;-61
2021/08/22 02:42:58;;;;;;;3.72;1.80;;;21.70;64.10;;;;;;5053632;28;20029;-61
2021/08/22 02:45:24;;;;;;;3.88;2.00;;;21.70;64.10;;;;;;5053569;28;20469;-61
2021/08/22 02:47:50;;;;;;;3.92;1.90;;;21.70;64.10;;;;;;5053537;28;20025;-61
2021/08/22 02:50:15;;;;;;;4.72;2.03;;;21.70;64.20;;;;;;5052253;28;20070;-61
2021/08/22 02:52:41;;;;;;;4.68;2.00;;;21.70;64.10;;;;;;5053479;28;20111;-61
2021/08/22 02:55:07;;;;;;;3.47;1.92;;;21.70;64.10;;;;;;5053350;28;20033;-61
2021/08/22 02:57:32;;;;;;;3.60;1.90;;;21.70;64.20;;;;;;5052183;28;20037;-61
2021/08/22 02:59:58;;;;;;;3.97;1.92;;;21.70;64.20;;;;;;5053277;28;20021;-61
2021/08/22 03:02:23;;;;;;;3.50;1.85;;;21.70;64.20;;;;;;5053315;28;20025;-61
2021/08/22 03:04:49;;;;;;;6.97;1.90;;;21.70;64.20;;;;;;5053375;28;20104;-61
2021/08/22 03:07:14;;;;;;;3.20;1.77;;;21.70;64.10;;;;;;5051953;28;20017;-61
2021/08/22 03:09:40;;;;;;;3.58;1.90;;;21.70;64.20;;;;;;5053271;28;20068;-61
2021/08/22 03:12:06;;;;;;;4.85;2.30;;;21.70;64.20;;;;;;5052723;28;20033;-61
2021/08/22 03:14:31;;;;;;;3.70;1.83;;;21.70;64.20;;;;;;5053115;28;20040;-61
2021/08/22 03:16:57;;;;;;;4.00;2.15;;;21.70;64.30;;;;;;5052868;28;20365;-61
2021/08/22 03:19:22;;;;;;;4.18;1.85;;;21.70;64.20;;;;;;5053030;28;20013;-61
2021/08/22 03:21:48;;;;;;;3.00;1.70;;;21.70;64.20;;;;;;5053055;28;20025;-61
2021/08/22 03:24:13;;;;;;;3.55;1.80;;;21.70;64.30;;;;;;5053022;28;20021;-61
2021/08/22 03:26:40;;;;;;;3.80;1.98;;;21.70;64.20;;;;;;5052921;28;20036;-61
2021/08/22 03:29:06;;;;;;;5.70;2.03;;;21.70;64.30;;;;;;5052918;28;20128;-61
2021/08/22 03:31:31;;;;;;;4.95;1.90;;;21.70;64.30;;;;;;5052844;28;20043;-61
2021/08/22 03:33:57;;;;;;;2.90;1.58;;;21.70;64.30;;;;;;5052850;28;20505;-61
2021/08/22 03:36:23;;;;;;;4.68;1.83;;;21.70;64.30;;;;;;5052637;28;20110;-61
2021/08/22 03:38:48;;;;;;;4.15;2.20;;;21.70;64.30;;;;;;5052828;28;20029;-61
2021/08/22 03:41:14;;;;;;;3.90;1.80;;;21.70;64.30;;;;;;5052789;28;20120;-61
2021/08/22 03:43:39;;;;;;;3.45;1.85;;;21.70;64.30;;;;;;5052720;28;20028;-61
2021/08/22 03:46:05;;;;;;;4.57;2.20;;;21.70;64.30;;;;;;5052798;28;20036;-61
2021/08/22 03:48:30;;;;;;;4.00;2.05;;;21.70;64.30;;;;;;5052680;28;20021;-61
2021/08/22 03:50:56;;;;;;;3.70;1.58;;;21.60;64.30;;;;;;5052776;28;20025;-61
2021/08/22 03:53:22;;;;;;;3.17;1.80;;;21.60;64.30;;;;;;5052765;28;20404;-61
2021/08/22 03:55:48;;;;;;;3.85;1.80;;;21.70;64.40;;;;;;5052623;28;20037;-61
2021/08/22 03:58:14;;;;;;;4.15;2.13;;;21.60;64.30;;;;;;5052631;28;20036;-61
2021/08/22 04:00:39;;;;;;;3.45;1.90;;;21.60;64.30;;;;;;5052627;28;20424;-61
2021/08/22 04:03:05;;;;;;;4.72;1.98;;;21.60;64.30;;;;;;5052694;28;20025;-61
2021/08/22 04:05:31;;;;;;;4.78;2.35;;;21.60;64.30;;;;;;5052584;28;20048;-61
2021/08/22 04:07:59;;;;;;;3.95;2.03;;;21.60;64.30;;;;;;5052565;28;20040;-61
2021/08/22 04:10:26;;;;;;;4.35;1.70;;;21.60;64.40;;;;;;5052617;28;20021;-61
2021/08/22 04:12:52;;;;;;;3.20;1.67;;;21.60;64.40;;;;;;5052506;28;20483;-61
2021/08/22 04:15:17;;;;;;;3.20;1.80;;;21.60;64.40;;;;;;5052309;28;20033;-61
2021/08/22 04:17:43;;;;;;;4.28;1.83;;;21.60;64.40;;;;;;5052435;28;20099;-61
2021/08/22 04:20:09;;;;;;;4.97;2.15;;;21.60;64.40;;;;;;5052599;28;20025;-61
2021/08/22 04:22:37;;;;;;;5.95;2.00;;;21.60;64.40;;;;;;5053262;28;20063;-61
2021/08/22 04:25:06;;;;;;;3.85;2.10;;;21.60;64.40;;;;;;5056563;28;20427;-61
2021/08/22 04:27:33;;;;;;;3.70;1.77;;;21.60;64.40;;;;;;5056145;28;20021;-61
2021/08/22 04:29:58;;;;;;;4.70;2.10;;;21.60;64.40;;;;;;5056329;28;20031;-61
2021/08/22 04:32:24;;;;;;;4.57;2.05;;;21.50;64.50;;;;;;5054826;28;20392;-60
2021/08/22 04:34:49;;;;;;;3.85;2.08;;;21.60;64.50;;;;;;5056275;28;20380;-61
2021/08/22 04:37:15;;;;;;;4.13;2.00;;;21.50;64.50;;;;;;5055908;28;20091;-61
2021/08/22 04:39:40;;;;;;;3.83;2.05;;;21.60;64.50;;;;;;5056004;28;20027;-61
2021/08/22 04:42:06;;;;;;;4.05;2.08;;;21.50;64.50;;;;;;5055859;28;20052;-61
2021/08/22 04:44:31;;;;;;;5.13;2.20;;;21.60;64.60;;;;;;5054724;28;20048;-61
2021/08/22 04:46:57;;;;;;;4.43;2.10;;;21.60;64.50;;;;;;5055806;28;20390;-61
2021/08/22 04:49:22;;;;;;;3.78;2.00;;;21.60;64.50;;;;;;5055898;28;20388;-61
2021/08/22 04:51:48;;;;;;;3.95;2.08;;;21.50;64.50;;;;;;5055992;28;20457;-61
2021/08/22 04:54:13;;;;;;;3.60;2.08;;;21.50;64.60;;;;;;5055688;28;20024;-61
2021/08/22 04:56:41;;;;;;;4.22;2.10;;;21.50;64.60;;;;;;5055833;28;20033;-61
2021/08/22 04:59:07;;;;;;;5.32;2.38;;;21.50;64.50;;;;;;5055980;28;20028;-61
2021/08/22 05:01:32;;;;;;;4.55;2.25;;;21.50;64.60;;;;;;5055769;28;20033;-61
2021/08/22 05:03:58;;;;;;;3.95;2.30;;;21.50;64.60;;;;;;5054493;28;20039;-61
2021/08/22 05:06:23;;;;;;;4.72;2.35;;;21.50;64.60;;;;;;5055438;28;20029;-61
2021/08/22 05:08:49;;;;;;;4.10;2.25;;;21.50;64.60;;;;;;5055404;28;20039;-61
2021/08/22 05:11:14;;;;;;;5.82;2.13;;;21.50;64.60;;;;;;5055335;28;20473;-61
2021/08/22 05:13:40;;;;;;;4.85;2.10;;;21.50;64.60;;;;;;5055566;28;20017;-61
2021/08/22 05:16:06;;;;;;;4.95;2.60;;;21.60;64.70;;;;;;5055450;28;20044;-61
2021/08/22 05:18:32;;;;;;;4.78;2.30;;;21.50;64.60;;;;;;5055311;28;20053;-60
2021/08/22 05:20:57;;;;;;;4.75;2.47;;;21.50;64.60;;;;;;5055275;28;20435;-61
2021/08/22 05:23:23;;;;;;;5.35;2.35;;;21.50;64.60;;;;;;5055243;28;20052;-61
2021/08/22 05:25:48;;;;;;;4.65;2.60;;;21.50;64.60;;;;;;5055025;28;20082;-61
2021/08/22 05:28:14;;;;;;;4.03;2.30;;;21.50;64.70;;;;;;5055127;28;20036;-61
2021/08/22 05:30:39;;;;;;;4.25;2.13;;;21.50;64.60;;;;;;5055179;28;20053;-61
2021/08/22 05:33:05;;;;;;;4.38;2.20;;;21.50;64.60;;;;;;5054813;28;20099;-61
2021/08/22 05:35:31;;;;;;;4.38;2.58;;;21.50;64.60;;;;;;5054629;28;20052;-61
2021/08/22 05:37:56;;;;;;;5.13;2.40;;;21.50;64.60;;;;;;5055165;28;20021;-61
2021/08/22 05:40:22;;;;;;;4.82;2.33;;;21.50;64.60;;;;;;5054865;28;20024;-61
2021/08/22 05:42:48;;;;;;;4.63;2.28;;;21.50;64.60;;;;;;5054822;28;20036;-61
2021/08/22 05:45:13;;;;;;;4.13;2.30;;;21.50;64.70;;;;;;5054785;28;20021;-61
2021/08/22 05:47:39;;;;;;;4.55;2.55;;;21.50;64.70;;;;;;5054791;28;20390;-61
2021/08/22 05:50:05;;;;;;;4.47;2.35;;;21.50;64.70;;;;;;5054817;28;20025;-61
2021/08/22 05:52:35;;;;;;;4.25;2.47;;;21.50;64.60;;;;;;5054601;28;20021;-61
2021/08/22 05:55:06;;;;;;;5.05;2.50;;;21.50;64.70;;;;;;5054456;28;20032;-61
2021/08/22 05:57:32;;;;;;;4.43;2.35;;;21.50;64.70;;;;;;5054607;28;20023;-61
2021/08/22 05:59:57;;;;;;;3.72;2.15;;;21.50;64.60;;;;;;5054479;28;20384;-61
2021/08/22 06:02:23;;;;;;;4.85;2.65;;;21.50;64.60;;;;;;5054416;28;20037;-61
2021/08/22 06:04:48;;;;;;;5.10;2.80;;;21.50;64.70;;;;;;5054393;28;20104;-61
2021/08/22 06:07:20;;;;;;;4.30;2.25;;;21.50;64.60;;;;;;5054401;28;20108;-61
2021/08/22 06:09:49;;;;;;;6.15;2.53;;;21.50;64.60;;;;;;5054255;28;20536;-61
2021/08/22 06:12:15;;;;;;;4.63;2.40;;;21.50;64.60;;;;;;5054274;28;20025;-61
2021/08/22 06:14:41;;;;;;;4.88;2.35;;;21.50;64.60;;;;;;5052781;28;20111;-61
2021/08/22 06:17:07;;;;;;;5.13;2.45;;;21.50;64.60;;;;;;5054178;28;20116;-61
2021/08/22 06:19:32;;;;;;;5.05;2.65;;;21.50;64.60;;;;;;5054102;28;20052;-61
2021/08/22 06:21:58;;;;;;;4.75;2.78;;;21.50;64.60;;;;;;5054070;28;20041;-61
2021/08/22 06:24:23;;;;;;;5.28;2.60;;;21.50;64.60;;;;;;5053976;28;20082;-61
2021/08/22 06:26:49;;;;;;;4.75;2.40;;;21.50;64.60;;;;;;5052645;28;20159;-61
2021/08/22 06:29:14;;;;;;;4.53;2.38;;;21.50;64.60;;;;;;5054011;28;20032;-61
2021/08/22 06:31:40;;;;;;;5.15;2.80;;;21.50;64.60;;;;;;5053899;28;20484;-61
2021/08/22 06:34:09;;;;;;;5.20;2.90;;;21.50;64.60;;;;;;5053882;28;20037;-61
2021/08/22 06:36:39;;;;;;;5.50;3.25;;;21.50;64.60;;;;;;5053527;28;20382;-61
2021/08/22 06:39:06;;;;;;;4.60;2.42;;;21.50;64.60;;;;;;5054019;28;20017;-61
2021/08/22 06:41:31;;;;;;;4.30;2.30;;;21.50;64.60;;;;;;5053688;28;20029;-61
2021/08/22 06:43:57;;;;;;;4.20;2.42;;;21.50;64.60;;;;;;5053562;28;20354;-61
2021/08/22 06:46:23;;;;;;;4.35;2.35;;;21.50;64.60;;;;;;5052835;28;20075;-61
2021/08/22 06:48:49;;;;;;;4.47;2.47;;;21.50;64.60;;;;;;5052284;28;20029;-61
2021/08/22 06:51:14;;;;;;;5.40;2.70;;;21.50;64.60;;;;;;5053456;28;20020;-61
2021/08/22 06:53:40;;;;;;;4.78;2.60;;;21.50;64.60;;;;;;5053476;28;20048;-61
2021/08/22 06:56:05;;;;;;;3.83;2.50;;;21.50;64.60;;;;;;5053335;28;20037;-61
2021/08/22 06:58:31;;;;;;;4.50;2.65;;;21.50;64.60;;;;;;5053415;28;20542;-60
2021/08/22 07:00:56;;;;;;;5.53;2.95;;;21.50;64.60;;;;;;5053330;28;20469;-61
2021/08/22 07:03:22;;;;;;;5.05;2.60;;;21.50;64.70;;;;;;5053353;28;20017;-61
2021/08/22 07:05:47;;;;;;;4.65;2.58;;;21.50;64.60;;;;;;5053228;28;20051;-61
2021/08/22 07:08:13;;;;;;;5.05;2.45;;;21.50;64.60;;;;;;5053482;28;20020;-61
2021/08/22 07:10:39;;;;;;;4.40;2.58;;;21.50;64.60;;;;;;5053175;28;20111;-61
2021/08/22 07:13:05;;;;;;;3.95;2.50;;;21.50;64.50;;;;;;5053096;28;20032;-61
2021/08/22 07:15:31;;;;;;;4.65;2.65;;;21.50;64.50;;;;;;5053297;28;20041;-61
2021/08/22 07:17:56;;;;;;;4.47;2.60;;;21.50;64.50;;;;;;5053032;28;20412;-61
2021/08/22 07:20:23;;;;;;;5.35;3.00;;;21.50;64.50;;;;;;5052915;28;20025;-61
2021/08/22 07:22:48;;;;;;;5.68;3.10;;;21.50;64.50;;;;;;5053049;28;20104;-61
2021/08/22 07:25:14;;;;;;;5.40;2.60;;;21.60;64.50;;;;;;5053132;28;20453;-61
2021/08/22 07:27:39;;;;;;;5.30;2.80;;;21.50;64.40;;;;;;5052967;28;20029;-61
2021/08/22 07:30:05;;;;;;;3.67;2.22;;;21.60;64.30;;;;;;5052956;28;20099;-61
2021/08/22 07:32:31;;;;;;;5.28;2.70;;;21.60;64.20;;;;;;5051681;28;20548;-61
2021/08/22 07:34:56;;;;;;;6.68;3.17;;;21.60;64.20;;;;;;5052848;28;20029;-61
2021/08/22 07:37:22;;;;;;;4.93;2.72;;;21.60;64.10;;;;;;5052903;28;20021;-60
2021/08/22 07:39:48;;;;;;;5.70;3.25;;;21.60;64.10;;;;;;5053113;28;20536;-61
2021/08/22 07:42:14;;;;;;;4.43;2.60;;;21.60;64.10;;;;;;5052856;28;20025;-61
2021/08/22 07:44:39;;;;;;;5.43;3.08;;;21.60;64.10;;;;;;5052787;28;20023;-61
2021/08/22 07:47:04;;;;;;;4.95;2.63;;;21.70;64.10;;;;;;5052781;28;20424;-61
2021/08/22 07:49:30;;;;;;;4.45;2.60;;;21.70;64.00;;;;;;5052676;28;20036;-61
2021/08/22 07:51:55;;;;;;;4.93;2.75;;;21.70;63.90;;;;;;5052709;28;20032;-61
2021/08/22 07:54:21;;;;;;;5.10;2.95;;;21.70;64.00;;;;;;5052744;28;20104;-61
2021/08/22 07:56:46;;;;;;;5.65;3.17;;;21.70;64.00;;;;;;5053675;28;20048;-61
2021/08/22 07:59:12;;;;;;;4.78;2.83;;;21.70;64.10;;;;;;5056974;28;20166;-61
2021/08/22 08:01:38;;;;;;;5.57;3.10;;;21.70;64.10;;;;;;5056752;28;20365;-61
2021/08/22 08:04:03;;;;;;;5.25;2.75;;;21.60;64.10;;;;;;5056707;28;20060;-61
2021/08/22 08:06:29;;;;;;;5.30;3.00;;;21.70;64.00;;;;;;5056886;28;20373;-61
2021/08/22 08:08:54;;;;;;;5.88;2.78;;;21.70;64.00;;;;;;5056421;28;20057;-61
2021/08/22 08:11:20;;;;;;;4.90;2.80;;;21.70;64.00;;;;;;5056682;28;20439;-61
2021/08/22 08:13:45;;;;;;;4.72;2.80;;;21.70;64.00;;;;;;5056165;28;20381;-61
2021/08/22 08:16:11;;;;;;;5.57;2.70;;;21.70;64.10;;;;;;5056171;28;20036;-61
2021/08/22 08:18:37;;;;;;;4.65;2.75;;;21.70;64.00;;;;;;5056362;28;20043;-61
2021/08/22 08:21:03;;;;;;;4.88;2.97;;;21.70;63.90;;;;;;5056013;28;20025;-61
2021/08/22 08:23:29;;;;;;;5.00;3.03;;;21.80;63.90;;;;;;5056239;28;20029;-61
2021/08/22 08:25:55;;;;;;;4.05;2.58;;;21.80;63.90;;;;;;5054959;28;20029;-61
2021/08/22 08:28:20;;;;;;;5.80;3.47;;;21.80;63.90;;;;;;5056175;28;20503;-61
2021/08/22 08:30:46;;;;;;;4.57;2.60;;;21.80;63.90;;;;;;5054840;28;20061;-61
2021/08/22 08:33:12;;;;;;;5.60;3.15;;;21.80;63.90;;;;;;5056296;28;20460;-61
2021/08/22 08:35:37;;;;;;;4.97;2.90;;;21.80;64.00;;;;;;5055943;28;20052;-61
2021/08/22 08:38:03;;;;;;;5.20;3.25;;;21.80;64.00;;;;;;5056058;28;20376;-61
2021/08/22 08:40:29;;;;;;;5.75;3.10;;;21.80;64.00;;;;;;5055924;28;20500;-61
2021/08/22 08:43:05;;;;;;;6.68;3.20;;;21.80;64.00;;;;;;5056118;28;20025;-61
2021/08/22 08:45:46;;;;;;;5.53;3.30;;;21.80;64.00;;;;;;5055862;28;20023;-61
2021/08/22 08:48:16;;;;;;;5.60;3.20;;;21.80;64.00;;;;;;5055884;28;20025;-61
2021/08/22 08:51:17;;;;;;;5.60;3.20;;;21.80;63.90;;;;;;5054447;28;20029;-61
2021/08/22 08:53:52;;;;;;;5.35;2.92;;;21.80;64.00;;;;;;5055720;28;20029;-61
2021/08/22 08:56:25;;;;;;;4.80;2.70;;;21.80;64.00;;;;;;5055662;28;20076;-61
2021/08/22 08:58:51;;;;;;;5.65;3.13;;;21.80;64.00;;;;;;5055861;28;20031;-61
2021/08/22 09:01:17;;;;;;;5.25;3.03;;;21.80;63.90;;;;;;5055860;28;20025;-61
2021/08/22 09:04:21;;;;;;;5.97;3.17;;;21.80;64.00;;;;;;5055669;28;20037;-61
2021/08/22 09:07:10;;;;;;;6.43;3.20;;;21.80;64.00;;;;;;5051303;28;20496;-61
2021/08/22 09:09:55;;;;;;;5.50;3.30;;;21.80;64.00;;;;;;5054658;28;20039;-61
2021/08/22 09:13:05;;;;;;;4.70;3.03;;;21.90;63.90;;;;;;5054194;28;20017;-61
2021/08/22 09:16:00;;;;;;;4.93;3.28;;;21.80;63.90;;;;;;5046609;28;20065;-61
2021/08/22 09:19:03;;;;;;;5.85;3.00;;;21.90;63.80;;;;;;5055259;28;20120;-61
2021/08/22 09:21:53;;;;;;;4.95;2.95;;;21.90;63.80;;;;;;5055293;28;20334;-61
2021/08/22 09:24:31;;;;;;;4.82;2.90;;;21.90;63.90;;;;;;5055338;28;20100;-61
2021/08/22 09:27:34;;;;;;;5.85;2.80;;;21.90;63.80;;;;;;5055195;28;20469;-61
2021/08/22 09:30:31;;;;;;;4.40;2.65;;;21.80;63.80;;;;;;5053831;28;20075;-61
2021/08/22 09:33:34;;;;;;;5.07;3.10;;;21.90;63.90;;;;;;5055218;28;20079;-61
2021/08/22 09:36:02;;;;;;;5.35;2.75;;;22.00;63.80;;;;;;5054698;28;20103;-61
2021/08/22 09:38:47;;;;;;;4.95;2.67;;;22.00;63.80;;;;;;5054957;28;20025;-61
2021/08/22 09:41:50;;;;;;;5.15;2.90;;;21.90;63.80;;;;;;5054894;28;20529;-61
2021/08/22 09:44:43;;;;;;;4.95;2.80;;;22.00;63.80;;;;;;5054788;28;20155;-61
2021/08/22 09:47:14;;;;;;;5.10;3.05;;;22.00;63.70;;;;;;5054777;28;20017;-61
2021/08/22 09:50:07;;;;;;;5.38;2.97;;;22.00;63.70;;;;;;5054695;28;20087;-61
2021/08/22 09:52:37;;;;;;;4.43;2.50;;;22.00;63.70;;;;;;5054593;28;20029;-61
2021/08/22 09:55:40;;;;;;;5.20;3.08;;;22.00;63.70;;;;;;5054511;28;20025;-61
2021/08/22 09:58:50;;;;;;;4.78;2.90;;;22.00;63.70;;;;;;5054598;28;20021;-61
2021/08/22 10:01:45;;;;;;;3.95;2.38;;;22.00;63.60;;;;;;5044321;28;20140;-61
2021/08/22 10:04:41;;;;;;;5.32;3.13;;;22.10;63.50;;;;;;5053226;28;20048;-61
2021/08/22 10:07:32;;;;;;;5.05;2.83;;;22.00;63.50;;;;;;5053069;28;20021;-61
2021/08/22 10:10:03;;;;;;;5.88;3.60;;;22.00;63.60;;;;;;5054338;28;20028;-61
2021/08/22 10:12:29;;;;;;;4.82;2.58;;;22.10;63.60;;;;;;5054298;28;20037;-61
2021/08/22 10:14:55;;;;;;;5.28;3.17;;;22.10;63.60;;;;;;5054701;28;20066;-61
2021/08/22 10:17:25;;;;;;;5.03;3.00;;;22.00;63.60;;;;;;5054175;28;20385;-61
2021/08/22 10:19:51;;;;;;;5.32;2.97;;;22.00;63.60;;;;;;5054146;28;20025;-61
2021/08/22 10:22:29;;;;;;;4.65;2.97;;;22.00;63.60;;;;;;5054237;28;20035;-61
2021/08/22 10:25:00;;;;;;;4.40;2.60;;;22.00;63.60;;;;;;5054032;28;20082;-60
2021/08/22 10:27:36;;;;;;;4.22;2.58;;;22.00;63.60;;;;;;5053993;28;20051;-61
2021/08/22 10:30:04;;;;;;;4.80;2.38;;;22.10;63.60;;;;;;5053789;28;20474;-61
2021/08/22 10:32:33;;;;;;;3.83;2.20;;;22.10;63.60;;;;;;5052454;28;20036;-61
2021/08/22 10:35:12;;;;;;;4.95;2.92;;;22.10;63.50;;;;;;5053576;28;20021;-61
2021/08/22 10:37:39;;;;;;;4.55;2.35;;;22.10;63.50;;;;;;5053822;28;20057;-61
2021/08/22 10:40:22;;;;;;;5.30;3.10;;;22.10;63.40;;;;;;5052394;28;20068;-61
2021/08/22 10:43:11;;;;;;;4.53;2.40;;;22.20;63.30;;;;;;5053497;28;20025;-61
2021/08/22 10:45:40;;;;;;;5.50;3.28;;;22.20;63.30;;;;;;5053506;28;20037;-61
2021/08/22 10:48:07;;;;;;;4.93;2.40;;;22.20;63.30;;;;;;5053560;28;20091;-61
2021/08/22 10:50:59;;;;;;;3.53;2.22;;;22.20;63.20;;;;;;5052264;28;20032;-61
2021/08/22 10:53:26;;;;;;;4.90;2.85;;;22.20;63.20;;;;;;5046609;28;20057;-61
2021/08/22 10:55:52;;;;;;;4.38;2.63;;;22.20;63.20;;;;;;5053329;28;20095;-61
2021/08/22 10:58:17;;;;;;;5.40;3.22;;;22.20;63.30;;;;;;5051791;28;20021;-61
2021/08/22 11:00:44;;;;;;;5.05;2.70;;;22.30;63.30;;;;;;5053577;28;20107;-61
2021/08/22 11:03:22;;;;;;;4.35;2.55;;;22.20;63.20;;;;;;5053283;28;20538;-61
2021/08/22 11:05:48;;;;;;;4.28;2.58;;;22.30;63.20;;;;;;5053459;28;20029;-61
2021/08/22 11:08:17;;;;;;;3.75;2.33;;;22.20;63.20;;;;;;5053366;28;20050;-61
2021/08/22 11:11:05;;;;;;;5.22;2.83;;;22.20;63.20;;;;;;5053495;28;20086;-62
2021/08/22 11:13:37;;;;;;;4.07;2.17;;;22.20;63.30;;;;;;5053173;28;20416;-61
2021/08/22 11:16:07;;;;;;;3.67;2.25;;;22.30;63.20;;;;;;5051682;28;20036;-61
2021/08/22 11:18:35;;;;;;;3.97;2.08;;;22.30;63.20;;;;;;5052920;28;20066;-62
2021/08/22 11:21:00;;;;;;;4.72;2.42;;;22.30;63.20;;;;;;5053018;28;20029;-61
2021/08/22 11:23:26;;;;;;;5.35;2.50;;;22.30;63.10;;;;;;5053232;28;20044;-61
2021/08/22 11:26:20;;;;;;;4.70;2.42;;;22.30;63.10;;;;;;5052992;28;20021;-61
2021/08/22 11:28:54;;;;;;;3.90;2.20;;;22.30;63.10;;;;;;5052253;28;20074;-61
2021/08/22 11:31:19;;;;;;;4.40;2.47;;;22.40;63.00;;;;;;5052586;28;20028;-61
2021/08/22 11:33:45;;;;;;;4.95;2.50;;;22.40;63.00;;;;;;5052968;28;20120;-62
2021/08/22 11:36:10;;;;;;;4.28;2.55;;;22.40;63.00;;;;;;5051208;28;20052;-61
2021/08/22 11:38:36;;;;;;;4.78;2.72;;;22.40;63.00;;;;;;5052945;28;20370;-61
2021/08/22 11:41:03;;;;;;;4.45;2.50;;;22.50;62.90;;;;;;5052592;28;20029;-61
2021/08/22 11:43:30;;;;;;;4.63;2.35;;;22.50;62.80;;;;;;5052764;28;20033;-61
2021/08/22 11:45:55;;;;;;;2.50;1.33;;;22.60;62.70;;;;;;5052995;28;20143;-61
2021/08/22 11:48:22;;;;;;;3.80;2.42;;;22.50;62.70;;;;;;5052762;28;20104;-61
2021/08/22 11:50:49;;;;;;;4.70;2.45;;;22.60;62.60;;;;;;5052912;28;20036;-61
2021/08/22 11:53:18;;;;;;;3.78;1.90;;;22.70;62.50;;;;;;5052620;28;20025;-62
2021/08/22 11:55:45;;;;;;;4.45;2.80;;;22.70;62.40;;;;;;5052582;28;20061;-61
2021/08/22 11:58:13;;;;;;;3.90;1.83;;;22.80;62.30;;;;;;5052829;28;20416;-61
2021/08/22 12:00:42;;;;;;;4.88;2.72;;;22.80;62.20;;;;;;5052837;28;20048;-61
2021/08/22 12:03:26;;;;;;;4.13;2.22;;;22.90;62.30;;;;;;5052602;28;20032;-62
2021/08/22 12:06:00;;;;;;;5.18;2.45;;;22.90;62.10;;;;;;5052484;28;20083;-61
2021/08/22 12:08:27;;;;;;;4.72;2.13;;;23.00;61.90;;;;;;5052394;28;20032;-61
2021/08/22 12:11:12;;;;;;;3.85;2.15;;;23.00;61.80;;;;;;5052427;28;20096;-61
2021/08/22 12:13:42;;;;;;;3.63;1.80;;;23.00;61.90;;;;;;5052466;28;20040;-61
2021/08/22 12:16:27;;;;;;;3.95;2.25;;;23.00;61.80;;;;;;5051093;28;20065;-61
2021/08/22 12:18:53;;;;;;;3.92;2.20;;;23.00;61.80;;;;;;5052419;28;20025;-63
2021/08/22 12:21:21;;;;;;;3.97;2.30;;;23.10;61.70;;;;;;5052409;28;20048;-61
2021/08/22 12:23:50;;;;;;;4.32;2.33;;;23.10;61.60;;;;;;5052371;28;20491;-61
2021/08/22 12:26:26;;;;;;;4.82;2.25;;;23.20;61.50;;;;;;5052197;28;20079;-61
2021/08/22 12:29:06;;;;;;;3.85;2.05;;;23.20;61.40;;;;;;5052276;28;20484;-61
2021/08/22 12:31:36;;;;;;;2.88;1.75;;;23.30;61.40;;;;;;5052307;28;20086;-61
2021/08/22 12:34:16;;;;;;;3.28;1.77;;;23.30;61.30;;;;;;5052057;28;20025;-61
2021/08/22 12:36:44;;;;;;;3.67;1.92;;;23.30;61.50;;;;;;5052094;28;20110;-61
2021/08/22 12:39:12;;;;;;;3.30;1.60;;;23.30;61.20;;;;;;5052171;28;20095;-61
2021/08/22 12:41:45;;;;;;;3.08;1.65;;;23.40;61.00;;;;;;5050969;28;20472;-62
2021/08/22 12:44:31;;;;;;;3.85;1.90;;;23.50;60.90;;;;;;5052572;28;20025;-61
2021/08/22 12:47:00;;;;;;;5.03;2.90;;;23.40;61.20;;;;;;5055630;28;20067;-61
2021/08/22 12:49:26;;;;;;;3.80;2.35;;;23.40;61.20;;;;;;5054576;28;20465;-61
2021/08/22 12:52:05;;;;;;;4.10;2.10;;;23.50;61.00;;;;;;5055685;28;20044;-61
2021/08/22 12:54:31;;;;;;;3.20;1.55;;;23.50;60.80;;;;;;5055697;28;20021;-62
2021/08/22 12:56:57;;;;;;;3.65;1.90;;;23.60;60.80;;;;;;5055580;28;20040;-61
2021/08/22 12:59:23;;;;;;;2.97;1.60;;;23.60;60.70;;;;;;5055905;28;20033;-61